sensor_id;sensor_type;location;lat;lon;timestamp;temperature;humidity
47382;DHT22;33128;51.580;5.170;2023-06-22T08:46:37;23.00;99.90
47382;DHT22;33128;51.580;5.170;2023-06-22T08:49:06;23.10;99.90
47382;DHT22;33128;51.580;5.170;2023-06-22T08:51:32;23.20;99.90
47382;DHT22;33128;51.580;5.170;2023-06-22T08:53:58;23.20;99.90
47382;DHT22;33128;51.580;5.170;2023-06-22T08:56:23;23.30;99.90
47382;DHT22;33128;51.580;5.170;2023-06-22T08:58:49;23.40;99.90
47382;DHT22;33128;51.580;5.170;2023-06-22T09:01:14;23.30;99.90
47382;DHT22;33128;51.580;5.170;2023-06-22T09:03:44;23.30;99.90
47382;DHT22;33128;51.580;5.170;2023-06-22T09:06:20;23.40;99.90
47382;DHT22;33128;51.580;5.170;2023-06-22T09:08:48;23.40;99.90
47382;DHT22;33128;51.580;5.170;2023-06-22T09:11:14;23.40;99.90
47382;DHT22;33128;51.580;5.170;2023-06-22T09:13:40;23.30;99.90
47382;DHT22;33128;51.580;5.170;2023-06-22T09:16:05;23.40;99.90
47382;DHT22;33128;51.580;5.170;2023-06-22T09:18:33;23.40;99.90
47382;DHT22;33128;51.580;5.170;2023-06-22T09:21:01;23.40;99.90
47382;DHT22;33128;51.580;5.170;2023-06-22T09:23:27;23.40;99.90
47382;DHT22;33128;51.580;5.170;2023-06-22T09:25:53;23.50;99.90
47382;DHT22;33128;51.580;5.170;2023-06-22T09:28:18;23.50;99.90
47382;DHT22;33128;51.580;5.170;2023-06-22T09:30:44;23.50;99.90
47382;DHT22;33128;51.580;5.170;2023-06-22T09:33:10;23.50;99.90
47382;DHT22;33128;51.580;5.170;2023-06-22T09:35:35;23.50;99.90
47382;DHT22;33128;51.580;5.170;2023-06-22T09:38:01;23.50;99.90
47382;DHT22;33128;51.580;5.170;2023-06-22T09:40:26;23.40;99.90
47382;DHT22;33128;51.580;5.170;2023-06-22T09:42:52;23.40;99.90
47382;DHT22;33128;51.580;5.170;2023-06-22T09:45:18;23.50;99.90
47382;DHT22;33128;51.580;5.170;2023-06-22T09:47:43;23.50;99.90
47382;DHT22;33128;51.580;5.170;2023-06-22T09:50:09;23.50;99.90
47382;DHT22;33128;51.580;5.170;2023-06-22T09:52:35;23.50;99.90
47382;DHT22;33128;51.580;5.170;2023-06-22T09:55:01;23.50;99.90
47382;DHT22;33128;51.580;5.170;2023-06-22T09:57:26;23.40;99.90
47382;DHT22;33128;51.580;5.170;2023-06-22T09:59:52;23.40;99.90
47382;DHT22;33128;51.580;5.170;2023-06-22T10:02:17;23.40;99.90
47382;DHT22;33128;51.580;5.170;2023-06-22T10:04:43;23.40;99.90
47382;DHT22;33128;51.580;5.170;2023-06-22T10:07:08;23.40;99.90
47382;DHT22;33128;51.580;5.170;2023-06-22T10:09:34;23.40;99.90
47382;DHT22;33128;51.580;5.170;2023-06-22T10:12:00;23.40;99.90
47382;DHT22;33128;51.580;5.170;2023-06-22T10:14:25;23.30;99.90
47382;DHT22;33128;51.580;5.170;2023-06-22T10:16:52;23.40;99.90
47382;DHT22;33128;51.580;5.170;2023-06-22T10:19:18;23.40;99.90
47382;DHT22;33128;51.580;5.170;2023-06-22T10:21:47;23.50;99.90
47382;DHT22;33128;51.580;5.170;2023-06-22T10:24:12;23.50;99.90
47382;DHT22;33128;51.580;5.170;2023-06-22T10:26:38;23.50;99.90
47382;DHT22;33128;51.580;5.170;2023-06-22T10:29:03;23.60;99.90
47382;DHT22;33128;51.580;5.170;2023-06-22T10:31:29;23.60;99.90
47382;DHT22;33128;51.580;5.170;2023-06-22T10:33:55;23.60;99.90
47382;DHT22;33128;51.580;5.170;2023-06-22T10:36:24;23.60;99.90
47382;DHT22;33128;51.580;5.170;2023-06-22T10:38:50;23.60;99.90
47382;DHT22;33128;51.580;5.170;2023-06-22T10:41:15;23.50;99.90
47382;DHT22;33128;51.580;5.170;2023-06-22T10:43:42;23.50;99.90
47382;DHT22;33128;51.580;5.170;2023-06-22T10:46:09;23.50;99.90
47382;DHT22;33128;51.580;5.170;2023-06-22T10:48:35;23.50;99.90
47382;DHT22;33128;51.580;5.170;2023-06-22T10:51:00;23.50;99.90
47382;DHT22;33128;51.580;5.170;2023-06-22T10:53:26;23.40;99.90
47382;DHT22;33128;51.580;5.170;2023-06-22T10:55:51;23.50;99.90
47382;DHT22;33128;51.580;5.170;2023-06-22T10:58:21;23.70;99.90
47382;DHT22;33128;51.580;5.170;2023-06-22T11:00:47;23.60;99.90
47382;DHT22;33128;51.580;5.170;2023-06-22T11:03:12;23.50;99.90
47382;DHT22;33128;51.580;5.170;2023-06-22T11:05:39;23.40;99.90
47382;DHT22;33128;51.580;5.170;2023-06-22T11:08:05;23.30;99.90
47382;DHT22;33128;51.580;5.170;2023-06-22T11:10:31;23.30;99.90
47382;DHT22;33128;51.580;5.170;2023-06-22T11:12:56;23.30;99.90
47382;DHT22;33128;51.580;5.170;2023-06-22T11:15:23;23.30;99.90
47382;DHT22;33128;51.580;5.170;2023-06-22T11:17:49;23.40;99.90
47382;DHT22;33128;51.580;5.170;2023-06-22T11:20:15;23.30;99.90
47382;DHT22;33128;51.580;5.170;2023-06-22T11:22:41;23.30;99.90
47382;DHT22;33128;51.580;5.170;2023-06-22T11:25:10;23.10;99.90
47382;DHT22;33128;51.580;5.170;2023-06-22T11:27:37;23.20;99.90
47382;DHT22;33128;51.580;5.170;2023-06-22T11:30:02;23.20;99.90
47382;DHT22;33128;51.580;5.170;2023-06-22T11:32:28;23.00;99.90
47382;DHT22;33128;51.580;5.170;2023-06-22T11:34:54;23.10;99.90
47382;DHT22;33128;51.580;5.170;2023-06-22T11:37:19;23.20;99.90
47382;DHT22;33128;51.580;5.170;2023-06-22T11:39:44;23.10;99.90
47382;DHT22;33128;51.580;5.170;2023-06-22T11:42:10;23.10;99.90
47382;DHT22;33128;51.580;5.170;2023-06-22T11:44:36;23.10;99.90
47382;DHT22;33128;51.580;5.170;2023-06-22T11:47:01;23.10;99.90
47382;DHT22;33128;51.580;5.170;2023-06-22T11:49:29;23.10;99.90
47382;DHT22;33128;51.580;5.170;2023-06-22T11:51:55;23.00;99.90
47382;DHT22;33128;51.580;5.170;2023-06-22T11:54:20;23.00;99.90
47382;DHT22;33128;51.580;5.170;2023-06-22T11:56:46;22.90;99.90
47382;DHT22;33128;51.580;5.170;2023-06-22T11:59:11;22.80;99.90
47382;DHT22;33128;51.580;5.170;2023-06-22T12:01:37;22.70;99.90
47382;DHT22;33128;51.580;5.170;2023-06-22T12:04:02;22.70;99.90
47382;DHT22;33128;51.580;5.170;2023-06-22T12:06:35;22.70;99.90
47382;DHT22;33128;51.580;5.170;2023-06-22T12:09:03;22.70;99.90
47382;DHT22;33128;51.580;5.170;2023-06-22T12:11:29;22.70;99.90
47382;DHT22;33128;51.580;5.170;2023-06-22T12:13:55;22.70;99.90
47382;DHT22;33128;51.580;5.170;2023-06-22T12:16:20;22.70;99.90
47382;DHT22;33128;51.580;5.170;2023-06-22T12:18:47;22.70;99.90
47382;DHT22;33128;51.580;5.170;2023-06-22T12:21:12;22.60;99.90
47382;DHT22;33128;51.580;5.170;2023-06-22T12:23:38;22.70;99.90
47382;DHT22;33128;51.580;5.170;2023-06-22T12:26:03;22.90;99.90
47382;DHT22;33128;51.580;5.170;2023-06-22T12:28:29;22.90;99.90
47382;DHT22;33128;51.580;5.170;2023-06-22T12:30:54;22.90;99.90
47382;DHT22;33128;51.580;5.170;2023-06-22T12:33:20;22.80;99.90
47382;DHT22;33128;51.580;5.170;2023-06-22T12:35:45;22.90;99.90
47382;DHT22;33128;51.580;5.170;2023-06-22T12:38:11;22.90;99.90
47382;DHT22;33128;51.580;5.170;2023-06-22T12:40:36;22.60;99.90
47382;DHT22;33128;51.580;5.170;2023-06-22T12:43:02;22.50;99.90
47382;DHT22;33128;51.580;5.170;2023-06-22T12:45:28;22.50;99.90
47382;DHT22;33128;51.580;5.170;2023-06-22T12:47:56;22.50;99.90
47382;DHT22;33128;51.580;5.170;2023-06-22T12:50:22;22.50;99.90
47382;DHT22;33128;51.580;5.170;2023-06-22T12:52:47;22.60;99.90
47382;DHT22;33128;51.580;5.170;2023-06-22T12:55:13;22.70;99.90
47382;DHT22;33128;51.580;5.170;2023-06-22T12:57:38;22.90;99.90
47382;DHT22;33128;51.580;5.170;2023-06-22T13:00:04;22.90;99.90
47382;DHT22;33128;51.580;5.170;2023-06-22T13:02:30;23.00;99.90
47382;DHT22;33128;51.580;5.170;2023-06-22T13:04:56;22.80;99.90
47382;DHT22;33128;51.580;5.170;2023-06-22T13:07:21;22.70;99.90
47382;DHT22;33128;51.580;5.170;2023-06-22T13:09:47;22.60;99.90
47382;DHT22;33128;51.580;5.170;2023-06-22T13:12:16;22.60;99.90
47382;DHT22;33128;51.580;5.170;2023-06-22T13:14:42;22.50;99.90
47382;DHT22;33128;51.580;5.170;2023-06-22T13:17:08;22.40;99.90
47382;DHT22;33128;51.580;5.170;2023-06-22T13:19:33;22.50;99.90
47382;DHT22;33128;51.580;5.170;2023-06-22T13:21:59;22.60;99.90
47382;DHT22;33128;51.580;5.170;2023-06-22T13:24:25;22.60;99.90
47382;DHT22;33128;51.580;5.170;2023-06-22T13:26:50;22.60;99.90
47382;DHT22;33128;51.580;5.170;2023-06-22T13:29:16;22.60;99.90
47382;DHT22;33128;51.580;5.170;2023-06-22T13:31:41;22.50;99.90
47382;DHT22;33128;51.580;5.170;2023-06-22T13:34:07;22.50;99.90
47382;DHT22;33128;51.580;5.170;2023-06-22T13:36:32;22.40;99.90
47382;DHT22;33128;51.580;5.170;2023-06-22T13:38:58;22.40;99.90
47382;DHT22;33128;51.580;5.170;2023-06-22T13:41:24;22.60;99.90
47382;DHT22;33128;51.580;5.170;2023-06-22T13:43:49;22.50;99.90
47382;DHT22;33128;51.580;5.170;2023-06-22T13:46:15;22.50;99.90
47382;DHT22;33128;51.580;5.170;2023-06-22T13:48:40;22.40;99.90
47382;DHT22;33128;51.580;5.170;2023-06-22T13:51:06;22.60;99.90
47382;DHT22;33128;51.580;5.170;2023-06-22T13:53:31;22.70;99.90
47382;DHT22;33128;51.580;5.170;2023-06-22T13:55:57;22.60;99.90
47382;DHT22;33128;51.580;5.170;2023-06-22T13:58:23;22.70;99.90
47382;DHT22;33128;51.580;5.170;2023-06-22T14:00:48;22.70;99.90
47382;DHT22;33128;51.580;5.170;2023-06-22T14:03:14;22.60;99.90
47382;DHT22;33128;51.580;5.170;2023-06-22T14:05:41;22.50;99.90
47382;DHT22;33128;51.580;5.170;2023-06-22T14:08:07;22.30;99.90
47382;DHT22;33128;51.580;5.170;2023-06-22T14:10:32;22.30;99.90
47382;DHT22;33128;51.580;5.170;2023-06-22T14:12:58;22.50;99.90
47382;DHT22;33128;51.580;5.170;2023-06-22T14:15:25;22.40;99.90
47382;DHT22;33128;51.580;5.170;2023-06-22T14:17:51;22.30;99.90
47382;DHT22;33128;51.580;5.170;2023-06-22T14:20:17;22.30;99.90
47382;DHT22;33128;51.580;5.170;2023-06-22T14:22:43;22.50;99.90
47382;DHT22;33128;51.580;5.170;2023-06-22T14:25:08;22.50;99.90
47382;DHT22;33128;51.580;5.170;2023-06-22T14:27:34;22.30;99.90
47382;DHT22;33128;51.580;5.170;2023-06-22T14:30:00;22.40;99.90
47382;DHT22;33128;51.580;5.170;2023-06-22T14:32:27;22.40;99.90
47382;DHT22;33128;51.580;5.170;2023-06-22T14:34:55;22.50;99.90
47382;DHT22;33128;51.580;5.170;2023-06-22T14:37:20;22.50;99.90
47382;DHT22;33128;51.580;5.170;2023-06-22T14:39:46;22.60;99.90
47382;DHT22;33128;51.580;5.170;2023-06-22T14:42:11;22.60;99.90
47382;DHT22;33128;51.580;5.170;2023-06-22T14:46:33;22.90;99.90
47382;DHT22;33128;51.580;5.170;2023-06-22T14:48:59;23.00;99.90
47382;DHT22;33128;51.580;5.170;2023-06-22T14:51:25;22.80;99.90
47382;DHT22;33128;51.580;5.170;2023-06-22T14:53:50;22.60;99.90
47382;DHT22;33128;51.580;5.170;2023-06-22T14:56:16;22.50;99.90
47382;DHT22;33128;51.580;5.170;2023-06-22T14:58:41;22.50;99.90
47382;DHT22;33128;51.580;5.170;2023-06-22T15:01:13;22.50;99.90
47382;DHT22;33128;51.580;5.170;2023-06-22T15:03:39;22.50;99.90
47382;DHT22;33128;51.580;5.170;2023-06-22T15:06:05;22.40;99.90
47382;DHT22;33128;51.580;5.170;2023-06-22T15:08:31;22.40;99.90
47382;DHT22;33128;51.580;5.170;2023-06-22T15:11:00;22.40;99.90
47382;DHT22;33128;51.580;5.170;2023-06-22T15:13:30;22.40;99.90
47382;DHT22;33128;51.580;5.170;2023-06-22T15:15:59;22.40;99.90
47382;DHT22;33128;51.580;5.170;2023-06-22T15:18:25;22.30;99.90
47382;DHT22;33128;51.580;5.170;2023-06-22T15:20:50;22.40;99.90
47382;DHT22;33128;51.580;5.170;2023-06-22T15:23:17;22.30;99.90
47382;DHT22;33128;51.580;5.170;2023-06-22T15:25:42;22.30;99.90
47382;DHT22;33128;51.580;5.170;2023-06-22T15:28:09;22.30;99.90
47382;DHT22;33128;51.580;5.170;2023-06-22T15:30:35;22.30;99.90
47382;DHT22;33128;51.580;5.170;2023-06-22T15:33:01;22.30;99.90
47382;DHT22;33128;51.580;5.170;2023-06-22T15:35:27;22.30;99.90
47382;DHT22;33128;51.580;5.170;2023-06-22T15:37:53;22.30;99.90
47382;DHT22;33128;51.580;5.170;2023-06-22T15:40:18;22.40;99.90
47382;DHT22;33128;51.580;5.170;2023-06-22T15:42:44;22.30;99.90
47382;DHT22;33128;51.580;5.170;2023-06-22T15:45:12;22.30;99.90
47382;DHT22;33128;51.580;5.170;2023-06-22T15:47:38;22.30;99.90
47382;DHT22;33128;51.580;5.170;2023-06-22T15:50:04;22.30;99.90
47382;DHT22;33128;51.580;5.170;2023-06-22T15:52:30;22.30;99.90
47382;DHT22;33128;51.580;5.170;2023-06-22T15:54:55;22.30;99.90
47382;DHT22;33128;51.580;5.170;2023-06-22T15:57:24;22.30;99.90
47382;DHT22;33128;51.580;5.170;2023-06-22T15:59:51;22.20;99.90
47382;DHT22;33128;51.580;5.170;2023-06-22T16:02:17;22.20;99.90
47382;DHT22;33128;51.580;5.170;2023-06-22T16:04:43;22.30;99.90
47382;DHT22;33128;51.580;5.170;2023-06-22T16:07:08;22.20;99.90
47382;DHT22;33128;51.580;5.170;2023-06-22T16:09:36;22.20;99.90
47382;DHT22;33128;51.580;5.170;2023-06-22T16:12:02;22.10;99.90
47382;DHT22;33128;51.580;5.170;2023-06-22T16:14:28;22.00;99.90
47382;DHT22;33128;51.580;5.170;2023-06-22T16:16:53;21.80;99.90
47382;DHT22;33128;51.580;5.170;2023-06-22T16:19:19;21.80;99.90
47382;DHT22;33128;51.580;5.170;2023-06-22T16:21:47;21.70;99.90
47382;DHT22;33128;51.580;5.170;2023-06-22T16:24:12;21.80;99.90
47382;DHT22;33128;51.580;5.170;2023-06-22T16:26:42;21.90;99.90
47382;DHT22;33128;51.580;5.170;2023-06-22T16:29:08;22.00;99.90
47382;DHT22;33128;51.580;5.170;2023-06-22T16:31:34;22.10;99.90
47382;DHT22;33128;51.580;5.170;2023-06-22T16:34:00;22.20;99.90
47382;DHT22;33128;51.580;5.170;2023-06-22T16:36:26;22.30;99.90
47382;DHT22;33128;51.580;5.170;2023-06-22T16:38:52;22.40;99.90
47382;DHT22;33128;51.580;5.170;2023-06-22T16:41:18;22.20;99.90
47382;DHT22;33128;51.580;5.170;2023-06-22T16:43:43;22.20;99.90
47382;DHT22;33128;51.580;5.170;2023-06-22T16:46:09;22.20;99.90
47382;DHT22;33128;51.580;5.170;2023-06-22T16:48:38;22.30;99.90
47382;DHT22;33128;51.580;5.170;2023-06-22T16:51:04;22.20;99.90
47382;DHT22;33128;51.580;5.170;2023-06-22T16:53:30;22.20;99.90
47382;DHT22;33128;51.580;5.170;2023-06-22T16:55:57;22.30;99.90
47382;DHT22;33128;51.580;5.170;2023-06-22T16:58:24;22.30;99.90
47382;DHT22;33128;51.580;5.170;2023-06-22T17:00:56;22.30;99.90
47382;DHT22;33128;51.580;5.170;2023-06-22T17:03:29;22.30;99.90
47382;DHT22;33128;51.580;5.170;2023-06-22T17:05:56;22.30;99.90
47382;DHT22;33128;51.580;5.170;2023-06-22T17:08:24;22.30;99.90
47382;DHT22;33128;51.580;5.170;2023-06-22T17:10:50;22.30;99.90
47382;DHT22;33128;51.580;5.170;2023-06-22T17:13:19;22.30;99.90
47382;DHT22;33128;51.580;5.170;2023-06-22T17:15:46;22.30;99.90
47382;DHT22;33128;51.580;5.170;2023-06-22T17:18:13;22.30;99.90
47382;DHT22;33128;51.580;5.170;2023-06-22T17:20:39;22.30;99.90
47382;DHT22;33128;51.580;5.170;2023-06-22T17:23:04;22.30;99.90
47382;DHT22;33128;51.580;5.170;2023-06-22T17:25:32;22.40;99.90
47382;DHT22;33128;51.580;5.170;2023-06-22T17:27:59;22.30;99.90
47382;DHT22;33128;51.580;5.170;2023-06-22T17:30:26;22.30;99.90
47382;DHT22;33128;51.580;5.170;2023-06-22T17:32:52;22.30;99.90
47382;DHT22;33128;51.580;5.170;2023-06-22T17:35:18;22.30;99.90
47382;DHT22;33128;51.580;5.170;2023-06-22T17:37:55;22.30;99.90
47382;DHT22;33128;51.580;5.170;2023-06-22T17:40:22;22.30;99.90
47382;DHT22;33128;51.580;5.170;2023-06-22T17:42:49;22.20;99.90
47382;DHT22;33128;51.580;5.170;2023-06-22T17:45:23;22.20;99.90
47382;DHT22;33128;51.580;5.170;2023-06-22T17:47:51;22.30;99.90
47382;DHT22;33128;51.580;5.170;2023-06-22T17:50:24;22.20;99.90
47382;DHT22;33128;51.580;5.170;2023-06-22T17:52:50;22.20;99.90
47382;DHT22;33128;51.580;5.170;2023-06-22T17:55:20;22.20;99.90
47382;DHT22;33128;51.580;5.170;2023-06-22T17:57:49;22.20;99.90
47382;DHT22;33128;51.580;5.170;2023-06-22T18:00:18;22.10;99.90
47382;DHT22;33128;51.580;5.170;2023-06-22T18:02:44;22.00;99.90
47382;DHT22;33128;51.580;5.170;2023-06-22T18:05:10;21.80;99.90
47382;DHT22;33128;51.580;5.170;2023-06-22T18:07:36;21.70;99.90
47382;DHT22;33128;51.580;5.170;2023-06-22T18:10:07;21.70;99.90
47382;DHT22;33128;51.580;5.170;2023-06-22T18:12:34;21.90;99.90
47382;DHT22;33128;51.580;5.170;2023-06-22T18:15:01;21.90;99.90
47382;DHT22;33128;51.580;5.170;2023-06-22T18:17:27;21.90;99.90
47382;DHT22;33128;51.580;5.170;2023-06-22T18:19:55;22.00;99.90
47382;DHT22;33128;51.580;5.170;2023-06-22T18:22:21;22.00;99.90
47382;DHT22;33128;51.580;5.170;2023-06-22T18:24:49;22.10;99.90
47382;DHT22;33128;51.580;5.170;2023-06-22T18:27:16;22.10;99.90
47382;DHT22;33128;51.580;5.170;2023-06-22T18:29:42;22.10;99.90
47382;DHT22;33128;51.580;5.170;2023-06-22T18:32:13;21.90;99.90
47382;DHT22;33128;51.580;5.170;2023-06-22T18:34:39;21.70;99.90
47382;DHT22;33128;51.580;5.170;2023-06-22T18:37:12;21.70;99.90
47382;DHT22;33128;51.580;5.170;2023-06-22T18:39:43;21.50;99.90
47382;DHT22;33128;51.580;5.170;2023-06-22T18:42:10;21.50;99.90
47382;DHT22;33128;51.580;5.170;2023-06-22T18:44:40;21.60;99.90
47382;DHT22;33128;51.580;5.170;2023-06-22T18:47:07;21.60;99.90
47382;DHT22;33128;51.580;5.170;2023-06-22T18:49:44;21.50;99.90
47382;DHT22;33128;51.580;5.170;2023-06-22T18:52:17;21.40;99.90
47382;DHT22;33128;51.580;5.170;2023-06-22T18:54:46;21.20;99.90
47382;DHT22;33128;51.580;5.170;2023-06-22T18:57:27;21.20;99.90
47382;DHT22;33128;51.580;5.170;2023-06-22T19:13:16;20.80;99.90
47382;DHT22;33128;51.580;5.170;2023-06-22T19:15:50;20.60;99.90
47382;DHT22;33128;51.580;5.170;2023-06-22T19:20:46;20.50;99.90
47382;DHT22;33128;51.580;5.170;2023-06-22T19:23:30;20.40;99.90
47382;DHT22;33128;51.580;5.170;2023-06-22T19:25:58;20.30;99.90
47382;DHT22;33128;51.580;5.170;2023-06-22T19:28:26;20.40;99.90
47382;DHT22;33128;51.580;5.170;2023-06-22T19:31:01;20.40;99.90
47382;DHT22;33128;51.580;5.170;2023-06-22T19:33:30;20.30;99.90
47382;DHT22;33128;51.580;5.170;2023-06-22T19:36:00;20.30;99.90
47382;DHT22;33128;51.580;5.170;2023-06-22T19:38:26;20.40;99.90
47382;DHT22;33128;51.580;5.170;2023-06-22T19:40:53;20.40;99.90
47382;DHT22;33128;51.580;5.170;2023-06-22T19:43:19;20.40;99.90
47382;DHT22;33128;51.580;5.170;2023-06-22T19:45:45;20.40;99.90
47382;DHT22;33128;51.580;5.170;2023-06-22T19:48:14;20.40;99.90
47382;DHT22;33128;51.580;5.170;2023-06-22T19:50:41;20.40;99.90
47382;DHT22;33128;51.580;5.170;2023-06-22T19:53:13;20.40;99.90
47382;DHT22;33128;51.580;5.170;2023-06-22T19:55:44;20.40;99.90
47382;DHT22;33128;51.580;5.170;2023-06-22T19:58:11;20.40;99.90
47382;DHT22;33128;51.580;5.170;2023-06-22T20:00:37;20.40;99.90
47382;DHT22;33128;51.580;5.170;2023-06-22T20:03:08;20.60;99.90
47382;DHT22;33128;51.580;5.170;2023-06-22T20:05:40;20.50;99.90
47382;DHT22;33128;51.580;5.170;2023-06-22T20:08:13;20.60;99.90
47382;DHT22;33128;51.580;5.170;2023-06-22T20:10:39;20.70;99.90
47382;DHT22;33128;51.580;5.170;2023-06-22T20:13:20;20.80;99.90
47382;DHT22;33128;51.580;5.170;2023-06-22T20:15:47;20.80;99.90
47382;DHT22;33128;51.580;5.170;2023-06-22T20:18:14;20.80;99.90
47382;DHT22;33128;51.580;5.170;2023-06-22T20:20:45;20.80;99.90
47382;DHT22;33128;51.580;5.170;2023-06-22T20:23:12;20.60;99.90
47382;DHT22;33128;51.580;5.170;2023-06-22T20:25:40;20.40;99.90
47382;DHT22;33128;51.580;5.170;2023-06-22T20:28:14;20.30;99.90
47382;DHT22;33128;51.580;5.170;2023-06-22T20:30:41;20.30;99.90
47382;DHT22;33128;51.580;5.170;2023-06-22T20:33:15;20.30;99.90
47382;DHT22;33128;51.580;5.170;2023-06-22T20:35:41;20.30;99.90
47382;DHT22;33128;51.580;5.170;2023-06-22T20:38:07;20.30;99.90
47382;DHT22;33128;51.580;5.170;2023-06-22T20:40:35;20.40;99.90
47382;DHT22;33128;51.580;5.170;2023-06-22T20:43:02;20.50;99.90
47382;DHT22;33128;51.580;5.170;2023-06-22T20:45:28;20.40;99.90
47382;DHT22;33128;51.580;5.170;2023-06-22T20:47:58;20.40;99.90
47382;DHT22;33128;51.580;5.170;2023-06-22T20:50:27;20.30;99.90
47382;DHT22;33128;51.580;5.170;2023-06-22T20:53:03;20.40;99.90
47382;DHT22;33128;51.580;5.170;2023-06-22T20:55:30;20.40;99.90
47382;DHT22;33128;51.580;5.170;2023-06-22T20:57:56;20.40;99.90
47382;DHT22;33128;51.580;5.170;2023-06-22T21:00:23;20.40;99.90
47382;DHT22;33128;51.580;5.170;2023-06-22T21:02:50;20.40;99.90
47382;DHT22;33128;51.580;5.170;2023-06-22T21:05:19;20.50;99.90
47382;DHT22;33128;51.580;5.170;2023-06-22T21:07:46;20.70;99.90
47382;DHT22;33128;51.580;5.170;2023-06-22T21:10:12;20.60;99.90
47382;DHT22;33128;51.580;5.170;2023-06-22T21:12:37;20.50;99.90
47382;DHT22;33128;51.580;5.170;2023-06-22T21:15:03;20.40;99.90
47382;DHT22;33128;51.580;5.170;2023-06-22T21:17:32;20.20;99.90
47382;DHT22;33128;51.580;5.170;2023-06-22T21:19:58;20.30;99.90
47382;DHT22;33128;51.580;5.170;2023-06-22T21:22:24;20.40;99.90
47382;DHT22;33128;51.580;5.170;2023-06-22T21:25:05;20.20;99.90
47382;DHT22;33128;51.580;5.170;2023-06-22T21:27:32;20.10;99.90
47382;DHT22;33128;51.580;5.170;2023-06-22T21:29:59;20.00;99.90
47382;DHT22;33128;51.580;5.170;2023-06-22T21:32:24;19.90;99.90
47382;DHT22;33128;51.580;5.170;2023-06-22T21:34:50;19.90;99.90
47382;DHT22;33128;51.580;5.170;2023-06-22T21:37:15;19.90;99.90
47382;DHT22;33128;51.580;5.170;2023-06-22T21:39:44;19.60;99.90
47382;DHT22;33128;51.580;5.170;2023-06-22T21:42:10;19.70;99.90
47382;DHT22;33128;51.580;5.170;2023-06-22T21:44:35;19.70;99.90
47382;DHT22;33128;51.580;5.170;2023-06-22T21:47:01;19.60;99.90
47382;DHT22;33128;51.580;5.170;2023-06-22T21:49:27;19.40;99.90
47382;DHT22;33128;51.580;5.170;2023-06-22T21:51:52;19.40;99.90
47382;DHT22;33128;51.580;5.170;2023-06-22T21:54:18;19.30;99.90
47382;DHT22;33128;51.580;5.170;2023-06-22T21:56:44;19.10;99.90
47382;DHT22;33128;51.580;5.170;2023-06-22T21:59:09;19.10;99.90
47382;DHT22;33128;51.580;5.170;2023-06-22T22:01:35;18.90;99.90
47382;DHT22;33128;51.580;5.170;2023-06-22T22:04:01;19.20;99.90
47382;DHT22;33128;51.580;5.170;2023-06-22T22:06:26;19.20;99.90
47382;DHT22;33128;51.580;5.170;2023-06-22T22:08:53;19.00;99.90
47382;DHT22;33128;51.580;5.170;2023-06-22T22:11:22;18.90;99.90
47382;DHT22;33128;51.580;5.170;2023-06-22T22:13:49;19.00;99.90
47382;DHT22;33128;51.580;5.170;2023-06-22T22:16:18;19.20;99.90
47382;DHT22;33128;51.580;5.170;2023-06-22T22:18:43;19.00;99.90
47382;DHT22;33128;51.580;5.170;2023-06-22T22:21:09;18.90;99.90
47382;DHT22;33128;51.580;5.170;2023-06-22T22:23:35;18.70;99.90
47382;DHT22;33128;51.580;5.170;2023-06-22T22:26:01;18.80;99.90
47382;DHT22;33128;51.580;5.170;2023-06-22T22:28:26;18.70;99.90
47382;DHT22;33128;51.580;5.170;2023-06-22T22:30:52;18.60;99.90
47382;DHT22;33128;51.580;5.170;2023-06-22T22:33:18;18.70;99.90
47382;DHT22;33128;51.580;5.170;2023-06-22T22:35:45;18.60;99.90
47382;DHT22;33128;51.580;5.170;2023-06-22T22:38:10;18.40;99.90
47382;DHT22;33128;51.580;5.170;2023-06-22T22:40:36;18.20;99.90
47382;DHT22;33128;51.580;5.170;2023-06-22T22:43:01;18.10;99.90
47382;DHT22;33128;51.580;5.170;2023-06-22T22:45:27;18.20;99.90
47382;DHT22;33128;51.580;5.170;2023-06-22T22:47:53;18.10;99.90
47382;DHT22;33128;51.580;5.170;2023-06-22T22:50:18;18.10;99.90
47382;DHT22;33128;51.580;5.170;2023-06-22T22:52:44;17.80;99.90
47382;DHT22;33128;51.580;5.170;2023-06-22T22:55:10;17.60;99.90
47382;DHT22;33128;51.580;5.170;2023-06-22T22:57:39;17.60;99.90
47382;DHT22;33128;51.580;5.170;2023-06-22T23:00:08;17.50;99.90
47382;DHT22;33128;51.580;5.170;2023-06-22T23:02:42;17.40;99.90
47382;DHT22;33128;51.580;5.170;2023-06-22T23:05:08;17.20;99.90
47382;DHT22;33128;51.580;5.170;2023-06-22T23:07:34;17.30;99.90
47382;DHT22;33128;51.580;5.170;2023-06-22T23:10:00;17.30;99.90
47382;DHT22;33128;51.580;5.170;2023-06-22T23:12:26;17.20;99.90
47382;DHT22;33128;51.580;5.170;2023-06-22T23:14:53;17.10;99.90
47382;DHT22;33128;51.580;5.170;2023-06-22T23:17:18;17.00;99.90
47382;DHT22;33128;51.580;5.170;2023-06-22T23:19:44;17.10;99.90
47382;DHT22;33128;51.580;5.170;2023-06-22T23:22:14;17.20;99.90
47382;DHT22;33128;51.580;5.170;2023-06-22T23:24:40;17.10;99.90
47382;DHT22;33128;51.580;5.170;2023-06-22T23:27:05;17.00;99.90
47382;DHT22;33128;51.580;5.170;2023-06-22T23:29:33;17.00;99.90
47382;DHT22;33128;51.580;5.170;2023-06-22T23:31:59;17.00;99.90
47382;DHT22;33128;51.580;5.170;2023-06-22T23:34:24;17.00;99.90
47382;DHT22;33128;51.580;5.170;2023-06-22T23:36:50;16.90;99.90
47382;DHT22;33128;51.580;5.170;2023-06-22T23:39:19;16.80;99.90
47382;DHT22;33128;51.580;5.170;2023-06-22T23:41:44;16.80;99.90
47382;DHT22;33128;51.580;5.170;2023-06-22T23:44:10;16.70;99.90
47382;DHT22;33128;51.580;5.170;2023-06-22T23:46:36;16.80;99.90
47382;DHT22;33128;51.580;5.170;2023-06-22T23:49:02;16.60;99.90
47382;DHT22;33128;51.580;5.170;2023-06-22T23:51:28;16.70;99.90
47382;DHT22;33128;51.580;5.170;2023-06-22T23:53:57;16.80;99.90
47382;DHT22;33128;51.580;5.170;2023-06-22T23:56:24;16.60;99.90
47382;DHT22;33128;51.580;5.170;2023-06-22T23:58:51;16.70;99.90
